createdAt,value
2023-06-06T00:00:41.472Z,45.62
2023-06-06T00:01:41.457Z,45.14
2023-06-06T00:02:41.490Z,45.53
2023-06-06T00:03:41.572Z,46.01
2023-06-06T00:04:41.496Z,45.43
2023-06-06T00:05:41.463Z,45.92
2023-06-06T00:06:41.445Z,46.01
2023-06-06T00:07:41.445Z,45.82
2023-06-06T00:08:41.429Z,45.82
2023-06-06T00:09:41.477Z,45.82
2023-06-06T00:10:41.430Z,45.82
2023-06-06T00:11:41.455Z,45.79
2023-06-06T00:12:41.426Z,45.51
2023-06-06T00:13:41.440Z,45.41
2023-06-06T00:14:41.419Z,45.31
2023-06-06T00:15:41.422Z,45.51
2023-06-06T00:16:41.507Z,45.60
2023-06-06T00:17:41.430Z,45.89
2023-06-06T00:18:41.404Z,45.41
2023-06-06T00:19:41.402Z,45.41
2023-06-06T00:20:41.408Z,45.60
2023-06-06T00:21:41.424Z,45.70
2023-06-06T00:22:41.440Z,45.79
2023-06-06T00:23:41.414Z,45.70
2023-06-06T00:24:41.413Z,45.79
2023-06-06T00:25:41.413Z,45.79
2023-06-06T00:26:41.384Z,45.79
2023-06-06T00:27:41.389Z,45.60
2023-06-06T00:28:41.376Z,45.60
2023-06-06T00:29:41.379Z,45.60
2023-06-06T00:30:41.376Z,45.70
2023-06-06T00:31:41.444Z,45.60
2023-06-06T00:32:41.432Z,45.89
2023-06-06T00:33:41.365Z,45.99
2023-06-06T00:34:41.362Z,45.89
2023-06-06T00:35:41.373Z,45.79
2023-06-06T00:36:41.354Z,45.89
2023-06-06T00:37:41.373Z,46.18
2023-06-06T00:38:41.348Z,45.99
2023-06-06T00:39:41.364Z,45.99
2023-06-06T00:40:41.360Z,46.08
2023-06-06T00:41:41.472Z,45.99
2023-06-06T00:42:41.353Z,45.99
2023-06-06T00:43:41.338Z,45.89
2023-06-06T00:44:41.345Z,45.60
2023-06-06T00:45:41.355Z,45.70
2023-06-06T00:46:41.354Z,45.70
2023-06-06T00:47:41.360Z,45.51
2023-06-06T00:48:41.352Z,45.89
2023-06-06T00:49:41.319Z,45.60
2023-06-06T00:50:41.315Z,46.18
2023-06-06T00:51:41.315Z,45.89
2023-06-06T00:52:41.317Z,45.99
2023-06-06T00:53:41.332Z,45.99
2023-06-06T00:54:41.349Z,46.18
2023-06-06T00:55:41.339Z,46.08
2023-06-06T00:56:41.301Z,46.18
2023-06-06T00:57:43.087Z,46.37
2023-06-06T00:58:41.297Z,46.08
2023-06-06T00:59:41.301Z,46.15
2023-06-06T01:00:41.304Z,46.45
2023-06-06T01:01:41.306Z,46.55
2023-06-06T01:02:41.360Z,46.35
2023-06-06T01:03:41.421Z,46.35
2023-06-06T01:04:41.314Z,46.55
2023-06-06T01:05:41.269Z,46.55
2023-06-06T01:06:41.272Z,46.25
2023-06-06T01:07:41.272Z,46.55
2023-06-06T01:08:41.274Z,46.55
2023-06-06T01:09:41.276Z,46.55
2023-06-06T01:10:41.253Z,46.45
2023-06-06T01:11:41.255Z,46.45
2023-06-06T01:12:41.251Z,46.45
2023-06-06T01:13:41.273Z,46.73
2023-06-06T01:14:41.237Z,46.55
2023-06-06T01:15:41.283Z,46.73
2023-06-06T01:16:41.245Z,46.55
2023-06-06T01:17:41.272Z,46.64
2023-06-06T01:18:41.229Z,46.83
2023-06-06T01:19:41.246Z,46.83
2023-06-06T01:20:41.234Z,46.45
2023-06-06T01:21:41.227Z,46.64
2023-06-06T01:22:41.233Z,46.64
2023-06-06T01:23:41.259Z,46.64
2023-06-06T01:24:41.204Z,46.73
2023-06-06T01:25:41.206Z,46.64
2023-06-06T01:26:41.220Z,46.25
2023-06-06T01:27:41.198Z,46.73
2023-06-06T01:28:41.207Z,46.35
2023-06-06T01:29:41.210Z,46.45
2023-06-06T01:30:41.185Z,46.64
2023-06-06T01:31:41.311Z,47.12
2023-06-06T01:32:41.218Z,47.22
2023-06-06T01:33:41.204Z,47.03
2023-06-06T01:34:41.172Z,47.12
2023-06-06T01:35:41.184Z,47.12
2023-06-06T01:36:41.163Z,47.22
2023-06-06T01:37:41.163Z,47.22
2023-06-06T01:38:41.159Z,47.22
2023-06-06T01:39:41.160Z,47.31
2023-06-06T01:40:41.163Z,47.22
2023-06-06T01:41:41.152Z,47.00
2023-06-06T01:42:41.192Z,47.00
2023-06-06T01:43:41.158Z,47.00
2023-06-06T01:44:41.137Z,47.00
2023-06-06T01:45:41.174Z,47.29
2023-06-06T01:46:41.157Z,47.49
2023-06-06T01:47:41.193Z,47.67
2023-06-06T01:48:41.128Z,47.49
2023-06-06T01:49:41.117Z,47.49
2023-06-06T01:50:41.114Z,47.67
2023-06-06T01:51:41.110Z,47.39
2023-06-06T01:52:41.113Z,47.49
2023-06-06T01:53:41.127Z,47.49
2023-06-06T01:54:41.100Z,47.67
2023-06-06T01:55:41.102Z,47.87
2023-06-06T01:56:41.101Z,48.35
2023-06-06T01:57:41.100Z,48.25
2023-06-06T01:58:41.108Z,48.16
2023-06-06T01:59:41.082Z,47.97
2023-06-06T02:00:41.114Z,48.25
2023-06-06T02:01:41.091Z,48.25
2023-06-06T02:02:41.131Z,48.35
2023-06-06T02:03:41.163Z,48.35
2023-06-06T02:04:41.065Z,48.25
2023-06-06T02:05:41.075Z,48.35
2023-06-06T02:06:41.126Z,48.54
2023-06-06T02:07:41.070Z,48.54
2023-06-06T02:08:41.053Z,48.16
2023-06-06T02:09:41.047Z,48.52
2023-06-06T02:10:41.035Z,48.43
2023-06-06T02:11:41.050Z,48.52
2023-06-06T02:12:41.033Z,48.43
2023-06-06T02:13:41.032Z,48.61
2023-06-06T02:14:41.024Z,48.43
2023-06-06T02:15:41.026Z,48.71
2023-06-06T02:16:41.076Z,48.81
2023-06-06T02:17:41.070Z,48.71
2023-06-06T02:18:41.008Z,48.61
2023-06-06T02:19:41.057Z,48.52
2023-06-06T02:20:41.002Z,48.61
2023-06-06T02:21:41.010Z,48.13
2023-06-06T02:22:41.014Z,48.71
2023-06-06T02:23:41.064Z,48.43
2023-06-06T02:24:40.986Z,48.43
2023-06-06T02:25:40.987Z,48.52
2023-06-06T02:26:40.992Z,48.71
2023-06-06T02:27:40.980Z,48.23
2023-06-06T02:28:40.975Z,48.71
2023-06-06T02:29:40.969Z,48.61
2023-06-06T02:30:41.003Z,48.43
2023-06-06T02:31:40.964Z,48.33
2023-06-06T02:32:41.011Z,48.61
2023-06-06T02:33:40.978Z,49.00
2023-06-06T02:34:40.979Z,48.71
2023-06-06T02:35:40.948Z,48.81
2023-06-06T02:36:40.946Z,48.81
2023-06-06T02:37:40.968Z,48.81
2023-06-06T02:38:40.937Z,49.00
2023-06-06T02:39:40.936Z,48.90
2023-06-06T02:40:40.929Z,48.90
2023-06-06T02:41:40.930Z,49.36
2023-06-06T02:42:40.937Z,49.27
2023-06-06T02:43:40.923Z,49.38
2023-06-06T02:44:40.914Z,49.74
2023-06-06T02:45:40.904Z,49.38
2023-06-06T02:46:40.990Z,49.36
2023-06-06T02:47:40.920Z,49.27
2023-06-06T02:48:40.920Z,49.68
2023-06-06T02:49:40.922Z,49.46
2023-06-06T02:50:40.911Z,49.77
2023-06-06T02:51:40.881Z,49.58
2023-06-06T02:52:40.882Z,49.36
2023-06-06T02:53:40.870Z,49.58
2023-06-06T02:54:40.946Z,49.65
2023-06-06T02:55:40.870Z,49.74
2023-06-06T02:56:40.878Z,50.04
2023-06-06T02:57:40.858Z,50.04
2023-06-06T02:58:40.867Z,49.74
2023-06-06T02:59:40.849Z,49.84
2023-06-06T03:00:40.857Z,49.84
2023-06-06T03:01:40.877Z,50.04
2023-06-06T03:02:40.896Z,49.84
2023-06-06T03:03:40.885Z,49.74
2023-06-06T03:04:40.824Z,49.74
2023-06-06T03:05:40.861Z,49.65
2023-06-06T03:06:40.816Z,49.74
2023-06-06T03:07:40.814Z,49.74
2023-06-06T03:08:40.820Z,49.94
2023-06-06T03:09:40.811Z,50.23
2023-06-06T03:10:40.812Z,49.94
2023-06-06T03:11:40.799Z,49.94
2023-06-06T03:12:40.811Z,50.13
2023-06-06T03:13:40.788Z,49.84
2023-06-06T03:14:55.272Z,49.94
2023-06-06T03:15:40.786Z,50.42
2023-06-06T03:16:40.852Z,49.94
2023-06-06T03:17:40.798Z,49.94
2023-06-06T03:18:40.784Z,50.13
2023-06-06T03:19:40.762Z,50.51
2023-06-06T03:20:40.760Z,50.51
2023-06-06T03:21:40.775Z,50.04
2023-06-06T03:22:40.752Z,50.13
2023-06-06T03:23:40.813Z,49.84
2023-06-06T03:24:40.751Z,49.74
2023-06-06T03:25:40.734Z,50.06
2023-06-06T03:26:40.753Z,49.77
2023-06-06T03:27:40.746Z,49.87
2023-06-06T03:28:40.749Z,49.68
2023-06-06T03:29:40.737Z,49.48
2023-06-06T03:30:40.759Z,49.10
2023-06-06T03:31:40.761Z,48.90
2023-06-06T03:32:40.754Z,48.83
2023-06-06T03:33:40.825Z,48.83
2023-06-06T03:34:41.007Z,48.64
2023-06-06T03:35:40.713Z,48.83
2023-06-06T03:36:40.708Z,48.64
2023-06-06T03:37:40.745Z,48.35
2023-06-06T03:38:40.763Z,48.54
2023-06-06T03:39:40.725Z,48.35
2023-06-06T03:40:40.709Z,48.64
2023-06-06T03:41:40.686Z,48.93
2023-06-06T03:42:40.736Z,48.83
2023-06-06T03:43:40.708Z,48.86
2023-06-06T03:44:40.680Z,48.54
2023-06-06T03:45:40.717Z,48.66
2023-06-06T03:46:40.684Z,48.47
2023-06-06T03:47:40.748Z,48.38
2023-06-06T03:48:40.677Z,48.38
2023-06-06T03:49:40.672Z,48.28
2023-06-06T03:50:40.734Z,48.47
2023-06-06T03:51:40.689Z,48.47
2023-06-06T03:52:40.672Z,48.57
2023-06-06T03:53:40.736Z,48.38
2023-06-06T03:54:40.678Z,48.38
2023-06-06T03:55:40.681Z,48.76
2023-06-06T03:56:40.677Z,48.38
2023-06-06T03:57:40.659Z,48.57
2023-06-06T03:58:40.660Z,48.57
2023-06-06T03:59:40.717Z,48.57
2023-06-06T04:00:40.685Z,48.47
2023-06-06T04:01:40.675Z,48.38
2023-06-06T04:02:40.753Z,48.38
2023-06-06T04:03:40.861Z,48.47
2023-06-06T04:04:40.705Z,48.28
2023-06-06T04:05:40.649Z,48.21
2023-06-06T04:06:40.688Z,48.38
2023-06-06T04:07:40.663Z,48.40
2023-06-06T04:08:40.696Z,48.40
2023-06-06T04:09:40.735Z,48.30
2023-06-06T04:10:40.689Z,48.40
2023-06-06T04:11:40.649Z,48.30
2023-06-06T04:12:40.717Z,48.30
2023-06-06T04:13:40.681Z,47.82
2023-06-06T04:14:40.649Z,47.72
2023-06-06T04:15:40.693Z,48.11
2023-06-06T04:16:40.652Z,48.01
2023-06-06T04:17:40.656Z,48.01
2023-06-06T04:18:40.618Z,48.01
2023-06-06T04:19:40.639Z,48.01
2023-06-06T04:20:40.642Z,48.11
2023-06-06T04:21:40.644Z,48.01
2023-06-06T04:22:40.624Z,47.92
2023-06-06T04:23:40.683Z,48.11
2023-06-06T04:24:40.647Z,48.01
2023-06-06T04:25:40.640Z,48.11
2023-06-06T04:26:40.614Z,48.01
2023-06-06T04:27:40.630Z,48.01
2023-06-06T04:28:40.616Z,48.01
2023-06-06T04:29:40.601Z,47.92
2023-06-06T04:30:40.614Z,48.11
2023-06-06T04:31:40.645Z,48.01
2023-06-06T04:32:40.658Z,48.11
2023-06-06T04:33:40.614Z,48.11
2023-06-06T04:34:40.602Z,48.21
2023-06-06T04:35:40.610Z,48.21
2023-06-06T04:36:40.606Z,48.30
2023-06-06T04:37:40.614Z,48.21
2023-06-06T04:38:40.629Z,48.21
2023-06-06T04:39:40.597Z,48.01
2023-06-06T04:40:57.821Z,48.11
2023-06-06T04:42:40.588Z,48.30
2023-06-06T04:43:40.591Z,48.01
2023-06-06T04:44:40.587Z,48.01
2023-06-06T04:45:40.578Z,48.11
2023-06-06T04:46:40.650Z,47.92
2023-06-06T04:47:40.589Z,48.33
2023-06-06T04:48:40.604Z,47.82
2023-06-06T04:49:40.577Z,48.30
2023-06-06T04:50:40.582Z,48.13
2023-06-06T04:51:40.586Z,48.03
2023-06-06T04:52:40.582Z,48.01
2023-06-06T04:53:40.590Z,48.11
2023-06-06T04:54:40.587Z,48.13
2023-06-06T04:55:40.572Z,47.94
2023-06-06T04:56:40.578Z,48.13
2023-06-06T04:57:40.587Z,48.13
2023-06-06T04:58:40.581Z,48.03
2023-06-06T04:59:40.564Z,48.13
2023-06-06T05:00:40.635Z,48.23
2023-06-06T05:01:40.570Z,48.23
2023-06-06T05:02:40.573Z,48.42
2023-06-06T05:03:40.601Z,48.33
2023-06-06T05:04:40.567Z,48.33
2023-06-06T05:05:40.559Z,48.33
2023-06-06T05:06:40.565Z,48.42
2023-06-06T05:07:40.579Z,48.23
2023-06-06T05:08:40.570Z,48.33
2023-06-06T05:09:40.556Z,48.42
2023-06-06T05:10:40.565Z,48.33
2023-06-06T05:11:40.557Z,48.33
2023-06-06T05:12:40.565Z,48.23
2023-06-06T05:13:40.586Z,48.42
2023-06-06T05:14:40.585Z,48.42
2023-06-06T05:15:40.552Z,48.33
2023-06-06T05:16:40.597Z,48.42
2023-06-06T05:17:40.564Z,48.42
2023-06-06T05:18:40.558Z,47.94
2023-06-06T05:19:40.550Z,48.42
2023-06-06T05:20:40.563Z,48.42
2023-06-06T05:21:40.549Z,48.33
2023-06-06T05:22:40.571Z,48.42
2023-06-06T05:23:40.602Z,48.33
2023-06-06T05:24:40.550Z,48.42
2023-06-06T05:25:40.541Z,48.03
2023-06-06T05:26:40.553Z,48.25
2023-06-06T05:27:40.556Z,48.16
2023-06-06T05:28:40.543Z,48.16
2023-06-06T05:29:40.564Z,48.06
2023-06-06T05:30:40.587Z,48.06
2023-06-06T05:31:40.623Z,47.96
2023-06-06T05:32:40.656Z,48.06
2023-06-06T05:33:40.541Z,48.06
2023-06-06T05:34:40.550Z,48.25
2023-06-06T05:35:40.543Z,48.06
2023-06-06T05:36:40.543Z,48.16
2023-06-06T05:37:40.552Z,47.96
2023-06-06T05:38:40.570Z,48.25
2023-06-06T05:39:40.535Z,48.25
2023-06-06T05:40:40.567Z,48.44
2023-06-06T05:41:40.556Z,48.25
2023-06-06T05:42:40.544Z,48.25
2023-06-06T05:43:40.539Z,48.16
2023-06-06T05:44:40.541Z,48.25
2023-06-06T05:45:42.745Z,48.28
2023-06-06T05:46:40.633Z,48.25
2023-06-06T05:47:40.578Z,48.28
2023-06-06T05:48:40.544Z,48.18
2023-06-06T05:49:40.534Z,48.18
2023-06-06T05:50:40.558Z,48.28
2023-06-06T05:51:40.531Z,48.18
2023-06-06T05:52:40.554Z,48.08
2023-06-06T05:53:40.534Z,48.08
2023-06-06T05:54:49.569Z,48.08
2023-06-06T05:55:40.543Z,48.18
2023-06-06T05:56:40.529Z,48.08
2023-06-06T05:57:40.532Z,48.28
2023-06-06T05:58:41.892Z,48.28
2023-06-06T05:59:40.535Z,48.18
2023-06-06T06:00:40.545Z,48.08
2023-06-06T06:01:40.564Z,48.08
2023-06-06T06:02:40.710Z,48.37
2023-06-06T06:03:40.627Z,48.08
2023-06-06T06:04:40.562Z,48.37
2023-06-06T06:05:40.539Z,48.47
2023-06-06T06:06:40.537Z,48.08
2023-06-06T06:07:40.538Z,48.37
2023-06-06T06:08:40.537Z,48.28
2023-06-06T06:09:40.625Z,48.37
2023-06-06T06:10:40.551Z,48.37
2023-06-06T06:11:40.538Z,48.37
2023-06-06T06:12:40.530Z,48.28
2023-06-06T06:13:40.530Z,48.37
2023-06-06T06:14:40.529Z,48.01
2023-06-06T06:15:40.536Z,48.49
2023-06-06T06:16:40.577Z,48.39
2023-06-06T06:17:40.601Z,48.37
2023-06-06T06:18:40.529Z,48.37
2023-06-06T06:19:40.540Z,48.49
2023-06-06T06:20:40.539Z,48.49
2023-06-06T06:21:40.530Z,48.39
2023-06-06T06:22:40.551Z,48.39
2023-06-06T06:23:40.576Z,48.49
2023-06-06T06:24:40.548Z,48.01
2023-06-06T06:25:40.547Z,47.91
2023-06-06T06:26:40.546Z,48.01
2023-06-06T06:27:40.541Z,47.81
2023-06-06T06:28:40.545Z,48.49
2023-06-06T06:29:40.533Z,47.81
2023-06-06T06:30:40.539Z,47.81
2023-06-06T06:31:40.608Z,47.81
2023-06-06T06:32:41.784Z,47.81
2023-06-06T06:33:40.690Z,47.91
2023-06-06T06:34:40.577Z,47.81
2023-06-06T06:35:40.547Z,47.91
2023-06-06T06:36:40.543Z,47.81
2023-06-06T06:37:40.871Z,47.81
2023-06-06T06:38:40.556Z,48.30
2023-06-06T06:39:40.655Z,47.91
2023-06-06T06:40:40.549Z,47.81
2023-06-06T06:41:40.539Z,47.72
2023-06-06T06:42:40.540Z,47.81
2023-06-06T06:43:40.567Z,47.81
2023-06-06T06:44:42.179Z,47.91
2023-06-06T06:45:40.591Z,48.49
2023-06-06T06:46:40.537Z,48.49
2023-06-06T06:47:40.559Z,48.52
2023-06-06T06:48:40.560Z,48.49
2023-06-06T06:49:40.710Z,48.03
2023-06-06T06:50:40.543Z,48.39
2023-06-06T06:51:40.537Z,48.39
2023-06-06T06:52:40.542Z,48.39
2023-06-06T06:53:40.542Z,48.49
2023-06-06T06:54:40.542Z,47.91
2023-06-06T06:55:40.553Z,48.39
2023-06-06T06:56:40.565Z,48.42
2023-06-06T06:57:40.543Z,48.52
2023-06-06T06:58:40.534Z,48.52
2023-06-06T06:59:40.545Z,47.84
2023-06-06T07:00:40.541Z,47.74
2023-06-06T07:01:40.564Z,47.65
2023-06-06T07:02:40.639Z,47.94
2023-06-06T07:03:40.556Z,47.74
2023-06-06T07:04:40.539Z,47.65
2023-06-06T07:05:40.770Z,47.45
2023-06-06T07:06:40.544Z,47.74
2023-06-06T07:07:40.545Z,47.65
2023-06-06T07:08:40.558Z,47.74
2023-06-06T07:09:40.551Z,47.84
2023-06-06T07:10:40.545Z,47.65
2023-06-06T07:11:40.545Z,47.74
2023-06-06T07:12:40.552Z,47.74
2023-06-06T07:13:40.540Z,47.45
2023-06-06T07:14:40.539Z,47.36
2023-06-06T07:15:40.562Z,47.36
2023-06-06T07:16:40.552Z,47.55
2023-06-06T07:17:40.612Z,47.45
2023-06-06T07:18:40.560Z,47.55
2023-06-06T07:19:40.542Z,47.55
2023-06-06T07:20:40.569Z,47.67
2023-06-06T07:21:40.569Z,47.38
2023-06-06T07:22:40.559Z,47.67
2023-06-06T07:23:40.692Z,47.38
2023-06-06T07:24:40.561Z,47.58
2023-06-06T07:25:40.545Z,47.48
2023-06-06T07:26:40.551Z,47.00
2023-06-06T07:27:40.551Z,47.48
2023-06-06T07:28:42.965Z,47.58
2023-06-06T07:29:40.553Z,47.38
2023-06-06T07:30:40.549Z,47.48
2023-06-06T07:31:40.630Z,47.19
2023-06-06T07:32:40.550Z,47.48
2023-06-06T07:33:40.562Z,47.38
2023-06-06T07:34:40.561Z,47.38
2023-06-06T07:35:40.552Z,47.09
2023-06-06T07:36:40.557Z,47.19
2023-06-06T07:37:40.573Z,47.38
2023-06-06T07:38:40.575Z,47.41
2023-06-06T07:39:40.564Z,47.41
2023-06-06T07:40:40.557Z,47.31
2023-06-06T07:41:40.564Z,47.11
2023-06-06T07:42:40.576Z,47.50
2023-06-06T07:43:40.573Z,46.73
2023-06-06T07:44:40.559Z,46.92
2023-06-06T07:45:40.570Z,46.83
2023-06-06T07:46:40.579Z,46.53
2023-06-06T07:47:40.672Z,46.83
2023-06-06T07:48:40.568Z,46.83
2023-06-06T07:49:40.568Z,46.63
2023-06-06T07:50:40.569Z,46.73
2023-06-06T07:51:40.571Z,46.53
2023-06-06T07:52:40.571Z,46.63
2023-06-06T07:53:40.681Z,46.63
2023-06-06T07:54:40.562Z,46.44
2023-06-06T07:55:40.560Z,46.56
2023-06-06T07:56:40.580Z,46.34
2023-06-06T07:57:40.716Z,46.94
2023-06-06T07:58:40.573Z,46.56
2023-06-06T07:59:40.575Z,46.36
2023-06-06T08:00:40.575Z,46.17
2023-06-06T08:01:40.678Z,46.46
2023-06-06T08:02:40.751Z,46.66
2023-06-06T08:03:40.573Z,46.66
2023-06-06T08:04:40.577Z,46.26
2023-06-06T08:05:40.592Z,46.26
2023-06-06T08:06:40.569Z,46.08
2023-06-06T08:07:40.580Z,46.19
2023-06-06T08:08:40.571Z,45.90
2023-06-06T08:09:40.717Z,46.09
2023-06-06T08:10:40.596Z,46.09
2023-06-06T08:11:40.597Z,46.19
2023-06-06T08:12:40.585Z,46.19
2023-06-06T08:13:40.582Z,46.29
2023-06-06T08:14:40.582Z,46.39
2023-06-06T08:15:40.575Z,45.90
2023-06-06T08:16:40.580Z,45.51
2023-06-06T08:17:40.662Z,45.51
2023-06-06T08:18:40.593Z,45.81
2023-06-06T08:19:40.588Z,45.61
2023-06-06T08:20:40.580Z,45.71
2023-06-06T08:21:40.591Z,45.90
2023-06-06T08:22:40.583Z,45.61
2023-06-06T08:23:40.681Z,45.83
2023-06-06T08:24:40.595Z,46.09
2023-06-06T08:25:40.624Z,46.02
2023-06-06T08:26:40.588Z,46.12
2023-06-06T08:27:40.585Z,45.61
2023-06-06T08:28:40.638Z,45.44
2023-06-06T08:29:40.595Z,45.44
2023-06-06T08:30:40.629Z,45.34
2023-06-06T08:31:40.631Z,45.25
2023-06-06T08:32:40.644Z,45.44
2023-06-06T08:33:40.590Z,45.44
2023-06-06T08:34:40.598Z,45.44
2023-06-06T08:35:40.602Z,45.73
2023-06-06T08:36:40.589Z,45.73
2023-06-06T08:37:40.592Z,45.44
2023-06-06T08:38:40.586Z,45.44
2023-06-06T08:39:40.598Z,45.47
2023-06-06T08:40:40.588Z,45.37
2023-06-06T08:41:40.658Z,45.27
2023-06-06T08:42:40.592Z,45.27
2023-06-06T08:43:40.592Z,45.17
2023-06-06T08:44:40.590Z,44.88
2023-06-06T08:45:40.599Z,44.98
2023-06-06T08:46:40.630Z,44.98
2023-06-06T08:47:40.629Z,45.17
2023-06-06T08:48:40.605Z,45.17
2023-06-06T08:49:40.600Z,45.07
2023-06-06T08:50:40.620Z,45.17
2023-06-06T08:51:40.626Z,44.88
2023-06-06T08:52:40.606Z,45.17
2023-06-06T08:53:40.616Z,45.17
2023-06-06T08:54:40.602Z,45.07
2023-06-06T08:55:40.616Z,45.47
2023-06-06T08:56:40.608Z,45.65
2023-06-06T08:57:40.716Z,45.47
2023-06-06T08:58:40.606Z,45.44
2023-06-06T08:59:40.606Z,45.25
2023-06-06T09:00:40.617Z,45.73
2023-06-06T09:01:40.636Z,45.73
2023-06-06T09:02:40.652Z,45.73
2023-06-06T09:03:40.649Z,45.92
2023-06-06T09:04:40.615Z,46.12
2023-06-06T09:05:40.610Z,45.73
2023-06-06T09:06:40.613Z,45.83
2023-06-06T09:07:40.610Z,45.83
2023-06-06T09:08:40.614Z,46.02
2023-06-06T09:09:40.610Z,46.29
2023-06-06T09:10:40.619Z,46.29
2023-06-06T09:11:40.626Z,45.90
2023-06-06T09:12:40.620Z,45.81
2023-06-06T09:13:40.639Z,46.09
2023-06-06T09:14:40.629Z,46.48
2023-06-06T09:15:40.623Z,46.67
2023-06-06T09:16:40.730Z,46.58
2023-06-06T09:17:40.703Z,46.48
2023-06-06T09:18:40.626Z,46.39
2023-06-06T09:19:40.628Z,46.58
2023-06-06T09:20:40.655Z,46.87
2023-06-06T09:21:40.636Z,46.77
2023-06-06T09:22:40.622Z,46.58
2023-06-06T09:23:40.726Z,46.46
2023-06-06T09:24:40.713Z,46.36
2023-06-06T09:25:40.651Z,46.67
2023-06-06T09:26:40.625Z,46.84
2023-06-06T09:27:40.631Z,46.75
2023-06-06T09:28:40.631Z,46.84
2023-06-06T09:29:40.782Z,47.04
2023-06-06T09:30:40.663Z,46.94
2023-06-06T09:31:40.622Z,46.94
2023-06-06T09:32:43.104Z,46.75
2023-06-06T09:33:40.670Z,46.94
2023-06-06T09:34:40.634Z,47.72
2023-06-06T09:35:40.626Z,47.24
2023-06-06T09:36:40.629Z,47.43
2023-06-06T09:37:40.647Z,47.43
2023-06-06T09:38:40.631Z,47.43
2023-06-06T09:39:40.631Z,47.24
2023-06-06T09:40:40.627Z,47.24
2023-06-06T09:41:40.632Z,47.33
2023-06-06T09:42:40.627Z,47.24
2023-06-06T09:43:40.637Z,47.14
2023-06-06T09:44:40.746Z,47.43
2023-06-06T09:45:40.797Z,47.43
2023-06-06T09:46:40.728Z,47.52
2023-06-06T09:47:40.705Z,47.43
2023-06-06T09:48:40.632Z,47.24
2023-06-06T09:49:40.670Z,47.43
2023-06-06T09:50:40.708Z,47.43
2023-06-06T09:51:40.638Z,47.50
2023-06-06T09:52:41.248Z,47.33
2023-06-06T09:53:40.686Z,47.41
2023-06-06T09:54:40.637Z,47.41
2023-06-06T09:55:40.639Z,47.43
2023-06-06T09:56:40.709Z,47.11
2023-06-06T09:57:40.653Z,46.92
2023-06-06T09:58:40.635Z,47.11
2023-06-06T09:59:40.639Z,47.60
2023-06-06T10:00:40.652Z,47.60
2023-06-06T10:01:40.802Z,47.21
2023-06-06T10:02:40.835Z,47.60
2023-06-06T10:03:40.722Z,47.50
2023-06-06T10:04:40.690Z,47.60
2023-06-06T10:05:40.648Z,47.50
2023-06-06T10:06:40.637Z,47.41
2023-06-06T10:07:40.645Z,47.69
2023-06-06T10:08:40.656Z,47.60
2023-06-06T10:09:40.709Z,47.69
2023-06-06T10:10:40.637Z,47.69
2023-06-06T10:11:40.640Z,47.41
2023-06-06T10:12:40.690Z,47.50
2023-06-06T10:13:40.665Z,47.60
2023-06-06T10:14:40.636Z,47.60
2023-06-06T10:15:40.656Z,47.60
2023-06-06T10:16:40.652Z,47.60
2023-06-06T10:17:40.791Z,47.41
2023-06-06T10:18:40.643Z,47.41
2023-06-06T10:19:40.667Z,47.79
2023-06-06T10:20:40.641Z,47.50
2023-06-06T10:21:40.667Z,47.50
2023-06-06T10:22:40.748Z,47.50
2023-06-06T10:23:40.780Z,47.31
2023-06-06T10:24:40.667Z,47.41
2023-06-06T10:25:40.656Z,47.31
2023-06-06T10:26:40.656Z,47.41
2023-06-06T10:27:40.750Z,47.31
2023-06-06T10:28:40.655Z,47.41
2023-06-06T10:29:40.709Z,47.50
2023-06-06T10:30:40.641Z,47.50
2023-06-06T10:31:40.687Z,47.41
2023-06-06T10:32:40.697Z,47.99
2023-06-06T10:33:40.801Z,47.69
2023-06-06T10:34:40.642Z,47.50
2023-06-06T10:35:40.653Z,47.89
2023-06-06T10:36:40.667Z,47.89
2023-06-06T10:37:40.849Z,47.89
2023-06-06T10:38:40.656Z,47.89
2023-06-06T10:39:40.668Z,47.69
2023-06-06T10:40:40.646Z,47.69
2023-06-06T10:41:40.657Z,47.86
2023-06-06T10:42:40.764Z,47.69
2023-06-06T10:43:40.645Z,47.79
2023-06-06T10:44:40.651Z,47.69
2023-06-06T10:45:40.651Z,47.79
2023-06-06T10:46:40.683Z,47.67
2023-06-06T10:47:40.739Z,47.79
2023-06-06T10:48:40.679Z,47.77
2023-06-06T10:49:40.717Z,47.69
2023-06-06T10:50:40.649Z,47.79
2023-06-06T10:51:40.655Z,47.77
2023-06-06T10:52:40.645Z,47.77
2023-06-06T10:53:40.648Z,47.69
2023-06-06T10:54:40.670Z,47.69
2023-06-06T10:55:40.667Z,47.79
2023-06-06T10:56:40.658Z,47.67
2023-06-06T10:57:40.684Z,47.79
2023-06-06T10:58:40.669Z,47.69
2023-06-06T10:59:40.695Z,47.69
2023-06-06T11:00:40.837Z,47.89
2023-06-06T11:01:40.687Z,47.79
2023-06-06T11:02:40.690Z,47.79
2023-06-06T11:03:40.859Z,47.99
2023-06-06T11:04:40.683Z,47.89
2023-06-06T11:05:40.681Z,47.69
2023-06-06T11:06:40.663Z,47.99
2023-06-06T11:07:40.677Z,47.69
2023-06-06T11:08:40.674Z,47.79
2023-06-06T11:09:40.661Z,47.79
2023-06-06T11:10:40.680Z,47.89
2023-06-06T11:11:40.668Z,47.69
2023-06-06T11:12:40.670Z,47.89
2023-06-06T11:13:40.661Z,47.89
2023-06-06T11:14:40.671Z,47.60
2023-06-06T11:15:40.666Z,47.60
2023-06-06T11:16:40.747Z,47.60
2023-06-06T11:17:40.733Z,47.60
2023-06-06T11:18:40.661Z,47.79
2023-06-06T11:19:40.660Z,47.69
2023-06-06T11:20:40.712Z,47.69
2023-06-06T11:21:40.745Z,47.69
2023-06-06T11:22:40.650Z,47.60
2023-06-06T11:23:40.666Z,47.69
2023-06-06T11:24:40.659Z,47.79
2023-06-06T11:25:40.650Z,47.58
2023-06-06T11:26:40.683Z,47.69
2023-06-06T11:27:40.698Z,47.99
2023-06-06T11:28:40.670Z,47.99
2023-06-06T11:29:40.693Z,47.99
2023-06-06T11:30:40.850Z,47.99
2023-06-06T11:31:40.770Z,47.89
2023-06-06T11:32:40.693Z,47.69
2023-06-06T11:33:40.690Z,47.89
2023-06-06T11:34:40.768Z,47.99
2023-06-06T11:35:41.176Z,47.99
2023-06-06T11:36:40.653Z,47.99
2023-06-06T11:37:40.865Z,48.57
2023-06-06T11:38:40.775Z,48.18
2023-06-06T11:39:40.678Z,48.47
2023-06-06T11:40:40.706Z,48.47
2023-06-06T11:41:40.689Z,48.47
2023-06-06T11:42:40.700Z,48.18
2023-06-06T11:43:40.689Z,48.18
2023-06-06T11:44:40.672Z,48.18
2023-06-06T11:45:40.677Z,48.27
2023-06-06T11:46:40.712Z,48.47
2023-06-06T11:47:40.843Z,48.37
2023-06-06T11:48:40.677Z,48.27
2023-06-06T11:49:40.752Z,48.37
2023-06-06T11:50:40.660Z,48.27
2023-06-06T11:51:40.673Z,48.18
2023-06-06T11:52:40.806Z,48.08
2023-06-06T11:53:40.771Z,48.18
2023-06-06T11:54:40.731Z,48.18
2023-06-06T11:55:40.699Z,47.99
2023-06-06T11:56:40.687Z,48.18
2023-06-06T11:57:40.736Z,48.08
2023-06-06T11:58:40.691Z,48.18
2023-06-06T11:59:40.676Z,48.27
2023-06-06T12:00:40.694Z,48.27
2023-06-06T12:01:40.642Z,48.18
2023-06-06T12:02:41.043Z,48.57
2023-06-06T12:03:40.784Z,48.47
2023-06-06T12:04:40.666Z,48.37
2023-06-06T12:05:40.705Z,48.57
2023-06-06T12:06:40.727Z,48.47
2023-06-06T12:07:40.683Z,48.57
2023-06-06T12:08:40.685Z,48.57
2023-06-06T12:09:40.753Z,48.47
2023-06-06T12:10:40.672Z,48.47
2023-06-06T12:11:40.653Z,48.66
2023-06-06T12:12:40.667Z,48.47
2023-06-06T12:13:40.678Z,48.47
2023-06-06T12:14:40.759Z,48.47
2023-06-06T12:15:40.713Z,48.47
2023-06-06T12:16:40.734Z,48.76
2023-06-06T12:17:40.690Z,48.66
2023-06-06T12:18:40.685Z,48.57
2023-06-06T12:19:40.762Z,48.57
2023-06-06T12:20:40.689Z,48.66
2023-06-06T12:21:40.680Z,48.66
2023-06-06T12:22:40.725Z,48.66
2023-06-06T12:23:40.764Z,48.76
2023-06-06T12:24:40.683Z,48.57
2023-06-06T12:25:40.761Z,48.57
2023-06-06T12:26:40.680Z,48.57
2023-06-06T12:27:40.672Z,48.76
2023-06-06T12:28:40.724Z,48.57
2023-06-06T12:29:40.734Z,48.37
2023-06-06T12:30:40.686Z,48.66
2023-06-06T12:31:40.725Z,48.47
2023-06-06T12:32:40.703Z,48.95
2023-06-06T12:33:40.654Z,48.57
2023-06-06T12:34:40.729Z,48.86
2023-06-06T12:35:40.662Z,48.57
2023-06-06T12:36:40.674Z,48.86
2023-06-06T12:37:40.686Z,48.95
2023-06-06T12:38:40.680Z,48.66
2023-06-06T12:39:40.680Z,48.66
2023-06-06T12:40:40.704Z,48.37
2023-06-06T12:41:40.862Z,48.76
2023-06-06T12:42:40.679Z,48.76
2023-06-06T12:43:40.672Z,48.86
2023-06-06T12:44:40.679Z,48.76
2023-06-06T12:45:40.687Z,48.57
2023-06-06T12:46:40.791Z,48.66
2023-06-06T12:47:40.702Z,48.57
2023-06-06T12:48:40.674Z,48.76
2023-06-06T12:49:40.677Z,48.76
2023-06-06T12:50:40.664Z,48.76
2023-06-06T12:51:40.898Z,48.76
2023-06-06T12:52:40.673Z,48.76
2023-06-06T12:53:40.736Z,48.76